Terminal Aerodrome Forecast
Issued by NWS Birmingham, AL

Current Version | Previous Version | Text Only | Print | Product List | Glossary On
Versions: 1 2 3 4 5 6 7 8 9 10 11 12 13
072
FTUS44 KBMX 232322
TAFBHM
TAF
KBHM 232322Z 2400/2424 00000KT P6SM SKC
     FM241600 19005KT P6SM FEW250=

USA.gov is the U.S. government's official web portal to all federal, state and local government web resources and services.